• Join FlightAware (Why Join?)
  • Login
  • US Flag 
07:27AM EST


 

Airport Tracker/Info


-or-


 

Live Flight TrackerFlight Track Log ✈ AWE1640 ✈ 01-May-2013 ✈ KCLT - KEWR

Flight Track Log - Related Links

Times and Time Zones

All times are in EDT time to prevent confusion due to time zone crossing. See the AWE1640 flight status page for this flight to view local times or setup timezone preferences in your user account.

Time Position Orientation Groundspeed Altitude Reporting Facility
EDT Latitude Longitude Course Direction KTS MPH feet Rate Location/Type
08:10AM 35.2400 -80.9380 355° North 153 176 2,100  Level FlightAware
08:10AM 35.2500 -80.9370 North 164 189 2,400 1,400 Climbing FlightAware
08:10AM 35.2620 -80.9250 39° Northeast 195 224 2,800 1,800 Climbing FlightAware
08:10AM 35.2670 -80.9090 69° East 215 247 3,300 2,250 Climbing FlightAware
08:11AM 35.2710 -80.8770 81° East 243 280 4,300 2,727 Climbing FlightAware
08:11AM 35.2770 -80.8370 80° East 260 299 5,800 3,100 Climbing FlightAware
08:12AM 35.2840 -80.7900 80° East 264 304 7,400 2,073 Climbing FlightAware
08:12AM 35.2900 -80.7530 79° East 270 311 7,700 750 Climbing FlightAware
08:12AM 35.2930 -80.7330 80° East 270 311 7,900 2,250 Climbing FlightAware
08:13AM 35.2990 -80.6920 80° East 273 314 9,200 2,486 Climbing FlightAware
08:14AM 35.3100 -80.6200 79° East 315 362 10,800 2,188 Climbing FlightAware
08:14AM 35.3210 -80.5450 80° East 345 397 12,300 1,200 Climbing FlightAware
08:15AM 35.3320 -80.4740 79° East 346 398 12,500 141 Climbing FlightAware
08:16AM 35.3430 -80.4080 78° East 346 398 12,500  Level FlightAware
08:16AM 35.3530 -80.3430 79° East 346 398 12,500 4,108 Level FlightAware
08:18AM 35.4214 -80.1772 79° East 388 447 20,100 4,500 Climbing Washington Center
08:19AM 35.4600 -80.0367 71° East 388 447 22,400 2,067 Climbing Washington Center
08:20AM 35.4942 -79.9033 72° East 395 455 24,200 1,866 Climbing Washington Center
08:21AM 35.5281 -79.7675 73° East 406 467 26,100 1,820 Climbing Washington Center
08:22AM 35.5642 -79.6289 72° East 417 480 27,900 1,488 Climbing Washington Center
08:23AM 35.6003 -79.4878 72° East 423 487 29,100 168 Climbing Washington Center
08:28AM 36.0490 -78.9510 72° East 409 471 29,000 -15 Descending FlightAware
08:29AM 36.1370 -78.8860 31° Northeast 407 468 29,000  Level FlightAware
08:30AM 36.2070 -78.8340 31° Northeast 406 467 29,000  Level FlightAware
08:30AM 36.2820 -78.7780 31° Northeast 406 467 29,000 71 Level FlightAware
08:31AM 36.3380 -78.7360 31° Northeast 405 466 29,100 80 Climbing FlightAware
08:32AM 36.3900 -78.6970 31° Northeast 405 466 29,100  Level FlightAware
08:33AM 36.4590 -78.6460 31° Northeast 405 466 29,100 -60 Level FlightAware
08:33AM 36.5650 -78.5660 31° Northeast 444 511 29,000 -67 Descending FlightAware
08:34AM 36.6240 -78.5210 31° Northeast 444 511 29,000  Level FlightAware
08:35AM 36.6840 -78.4760 31° Northeast 444 511 29,000  Level FlightAware
08:36AM 36.7590 -78.4200 31° Northeast 444 511 29,000  Level FlightAware
08:36AM 36.8190 -78.3750 31° Northeast 444 511 29,000  Level FlightAware
08:37AM 36.8790 -78.3300 31° Northeast 444 511 29,000 31 Level FlightAware
08:39AM 37.2040 -78.0790 32° Northeast 438 504 29,100 31 Climbing FlightAware
08:40AM 37.2700 -78.0280 32° Northeast 438 504 29,100  Level FlightAware
08:41AM 37.3490 -77.9670 32° Northeast 435 501 29,100  Level FlightAware
08:42AM 37.4290 -77.9050 32° Northeast 435 501 29,100  Level FlightAware
08:42AM 37.4990 -77.8510 31° Northeast 434 499 29,100  Level FlightAware
08:43AM 37.5710 -77.7900 34° Northeast 434 499 29,100  Level FlightAware
08:44AM 37.6360 -77.7310 36° Northeast 434 499 29,100  Level FlightAware
08:44AM 37.7120 -77.6630 35° Northeast 435 501 29,100  Level FlightAware
08:45AM 37.7770 -77.6030 36° Northeast 435 501 29,100  Level FlightAware
08:46AM 37.8500 -77.5360 36° Northeast 435 501 29,100  Level FlightAware
08:47AM 37.9160 -77.4760 36° Northeast 436 502 29,100  Level FlightAware
08:47AM 37.9890 -77.4090 36° Northeast 436 502 29,100  Level FlightAware
08:48AM 38.0550 -77.3490 36° Northeast 433 498 29,100  Level FlightAware
08:49AM 38.1190 -77.2900 36° Northeast 432 497 29,100  Level FlightAware
08:49AM 38.1940 -77.2210 36° Northeast 432 497 29,100  Level FlightAware
08:50AM 38.2570 -77.1620 36° Northeast 433 498 29,100 -305 Level FlightAware
08:50AM 38.2917 -77.1307 35° Northeast 432 497 28,800 -824 Descending FlightAware ADS-B
08:51AM 38.3428 -77.0834 36° Northeast 429 494 28,400 -818 Descending FlightAware ADS-B
08:51AM 38.3940 -77.0360 36° Northeast 427 491 27,900 -1,024 Descending FlightAware
08:52AM 38.4078 -77.0230 36° Northeast 426 490 27,700 -1,050 Descending FlightAware ADS-B
08:52AM 38.4601 -76.9744 36° Northeast 423 487 27,200 -538 Descending FlightAware ADS-B
08:53AM 38.5300 -76.9100 36° Northeast 422 486 27,000 -226 Descending FlightAware
08:53AM 38.5434 -76.8968 38° Northeast 422 486 27,000 150 Level FlightAware ADS-B
08:54AM 38.5920 -76.8510 36° Northeast 420 483 27,100 78 Climbing FlightAware
08:54AM 38.6653 -76.7828 36° Northeast 421 484 27,100  Level FlightAware ADS-B
08:55AM 38.7146 -76.7345 37° Northeast 423 487 27,100 -95 Level FlightAware ADS-B
08:55AM 38.7598 -76.6828 42° Northeast 424 488 27,000 -92 Descending FlightAware ADS-B
08:56AM 38.8105 -76.6245 42° Northeast 426 490 27,000 86 Level FlightAware ADS-B
08:57AM 38.8617 -76.5653 42° Northeast 422 486 27,100  Climbing FlightAware ADS-B
08:57AM 38.9079 -76.5120 42° Northeast 422 486 27,000  Descending FlightAware ADS-B
08:58AM 38.9518 -76.4612 42° Northeast 422 486 27,100  Climbing FlightAware ADS-B
08:58AM 38.9970 -76.4089 42° Northeast 421 484 27,000  Descending FlightAware ADS-B
08:59AM 39.0457 -76.3523 42° Northeast 423 487 27,100 91 Climbing FlightAware ADS-B
08:59AM 39.0934 -76.2968 42° Northeast 422 486 27,100  Level FlightAware ADS-B
09:00AM 39.1417 -76.2404 42° Northeast 422 486 27,100  Level FlightAware ADS-B
09:00AM 39.1880 -76.1862 42° Northeast 422 486 27,100 -97 Level FlightAware ADS-B
09:01AM 39.2315 -76.1353 42° Northeast 422 486 27,000 -98 Descending FlightAware ADS-B
09:01AM 39.2768 -76.0822 42° Northeast 421 484 27,000 -871 Level FlightAware ADS-B
09:02AM 39.3214 -76.0298 42° Northeast 416 479 26,100 -1,548 Descending FlightAware ADS-B
09:02AM 39.3639 -75.9797 42° Northeast 398 458 25,400 -1,452 Descending FlightAware ADS-B
09:03AM 39.4064 -75.9296 42° Northeast 391 450 24,600 -1,377 Descending FlightAware ADS-B
09:03AM 39.4464 -75.8823 42° Northeast 388 447 24,000 -1,300 Descending FlightAware ADS-B
09:04AM 39.4860 -75.8355 42° Northeast 384 442 23,300 -1,364 Descending FlightAware ADS-B
09:04AM 39.5318 -75.7811 42° Northeast 379 436 22,500 -1,273 Descending FlightAware ADS-B
09:05AM 39.5705 -75.7353 42° Northeast 369 425 21,900 -1,300 Descending FlightAware ADS-B
09:05AM 39.6088 -75.6898 42° Northeast 371 427 21,200 -1,377 Descending FlightAware ADS-B
09:06AM 39.6483 -75.6428 42° Northeast 378 435 20,500 -1,333 Descending FlightAware ADS-B
09:06AM 39.6889 -75.5943 43° Northeast 379 436 19,800 -1,452 Descending FlightAware ADS-B
09:07AM 39.7276 -75.5477 43° Northeast 371 427 19,000 -1,645 Descending FlightAware ADS-B
09:08AM 39.7673 -75.4998 43° Northeast 369 425 18,100 -1,645 Descending FlightAware ADS-B
09:08AM 39.8049 -75.4545 43° Northeast 367 422 17,300 -1,574 Descending FlightAware ADS-B
09:09AM 39.8436 -75.4078 43° Northeast 364 419 16,500 -1,574 Descending FlightAware ADS-B
09:09AM 39.8809 -75.3625 43° Northeast 361 415 15,700 -1,548 Descending FlightAware ADS-B
09:10AM 39.9187 -75.3168 43° Northeast 356 410 14,900 -1,524 Descending FlightAware ADS-B
09:10AM 39.9560 -75.2715 43° Northeast 352 405 14,100 -1,548 Descending FlightAware ADS-B
09:11AM 39.9934 -75.2258 43° Northeast 349 402 13,300 -1,475 Descending FlightAware ADS-B
09:11AM 40.0286 -75.1829 43° Northeast 342 394 12,600 -1,400 Descending FlightAware ADS-B
09:12AM 40.0628 -75.1412 43° Northeast 326 375 11,900 -1,377 Descending FlightAware ADS-B
09:12AM 40.0952 -75.1016 43° Northeast 313 360 11,200 -1,377 Descending FlightAware ADS-B
09:13AM 40.1271 -75.0625 43° Northeast 301 346 10,500 -1,200 Descending FlightAware ADS-B
09:13AM 40.1567 -75.0264 43° Northeast 287 330 10,000 -913 Descending FlightAware ADS-B
09:13AM 40.1715 -75.0082 43° Northeast 283 326 9,800 -968 Descending FlightAware ADS-B
09:14AM 40.1858 -74.9905 43° Northeast 280 322 9,500 -1,200 Descending FlightAware ADS-B
09:14AM 40.2000 -74.9732 43° Northeast 277 319 9,200 -1,161 Descending FlightAware ADS-B
09:14AM 40.2151 -74.9545 43° Northeast 275 316 8,900 -960 Descending FlightAware ADS-B
09:14AM 40.2233 -74.9445 43° Northeast 274 315 8,800 -857 Descending FlightAware ADS-B
09:14AM 40.2277 -74.9385 46° Northeast 274 315 8,700 -1,636 Descending FlightAware ADS-B
09:14AM 40.2325 -74.9308 51° Northeast 273 314 8,500 -2,000 Descending FlightAware ADS-B
09:15AM 40.2347 -74.9266 56° Northeast 272 313 8,400 -1,500 Descending FlightAware ADS-B
09:15AM 40.2405 -74.9140 59° Northeast 272 313 8,200 -1,440 Descending FlightAware ADS-B
09:15AM 40.2503 -74.8916 60° Northeast 269 310 7,800 -1,091 Descending FlightAware ADS-B
09:15AM 40.2609 -74.8672 60° Northeast 269 310 7,600 -545 Descending FlightAware ADS-B
09:15AM 40.2707 -74.8449 60° Northeast 271 312 7,500 -188 Descending FlightAware ADS-B
09:16AM 40.2806 -74.8221 60° Northeast 271 312 7,500  Level FlightAware ADS-B
09:16AM 40.2880 -74.8050 60° Northeast 270 311 7,500 222 Level FlightAware ADS-B
09:16AM 40.2973 -74.7834 61° Northeast 269 310 7,600 -200 Climbing FlightAware ADS-B
09:16AM 40.3065 -74.7623 60° Northeast 266 306 7,400 -968 Descending FlightAware ADS-B
09:17AM 40.3162 -74.7400 60° Northeast 260 299 7,100 -774 Descending FlightAware ADS-B
09:17AM 40.3251 -74.7193 61° Northeast 251 289 7,000 -774 Descending FlightAware ADS-B
09:17AM 40.3339 -74.6989 60° Northeast 245 282 6,700 -1,161 Descending FlightAware ADS-B
09:17AM 40.3423 -74.6796 60° Northeast 241 277 6,400 -1,400 Descending FlightAware ADS-B
09:18AM 40.3505 -74.6605 61° Northeast 241 277 6,000 -1,600 Descending FlightAware ADS-B
09:18AM 40.3590 -74.6411 60° Northeast 241 277 5,600 -1,548 Descending FlightAware ADS-B
09:18AM 40.3676 -74.6212 60° Northeast 239 275 5,200 -1,161 Descending FlightAware ADS-B
09:19AM 40.3757 -74.6025 60° Northeast 232 267 5,000 -581 Descending FlightAware ADS-B
09:19AM 40.3842 -74.5829 60° Northeast 223 257 4,900 -600 Descending FlightAware ADS-B
09:19AM 40.3909 -74.5672 61° Northeast 215 247 4,700 -600 Descending FlightAware ADS-B
09:19AM 40.3987 -74.5494 60° Northeast 214 246 4,600 -364 Descending FlightAware ADS-B
09:20AM 40.4070 -74.5303 60° Northeast 211 243 4,500  Descending FlightAware ADS-B
09:20AM 40.4140 -74.5137 61° Northeast 199 229 4,600 194 Climbing FlightAware ADS-B
09:20AM 40.4212 -74.4969 61° Northeast 194 223 4,600 -182 Level FlightAware ADS-B
09:20AM 40.4284 -74.4799 61° Northeast 192 221 4,500 -188 Descending FlightAware ADS-B
09:21AM 40.4350 -74.4646 60° Northeast 192 221 4,500  Level FlightAware ADS-B
09:21AM 40.4426 -74.4468 61° Northeast 192 221 4,500 167 Level FlightAware ADS-B
09:21AM 40.4504 -74.4288 60° Northeast 183 211 4,600  Climbing FlightAware ADS-B
09:21AM 40.4540 -74.4202 61° Northeast 181 208 4,500 -545 Descending FlightAware ADS-B
09:21AM 40.4548 -74.4181 63° Northeast 181 208 4,500 -800 Level FlightAware ADS-B
09:22AM 40.4593 -74.4053 65° Northeast 180 207 4,300 -1,034 Descending FlightAware ADS-B
09:22AM 40.4648 -74.3887 66° East 179 206 4,000 -947 Descending FlightAware ADS-B
09:22AM 40.4727 -74.3696 61° Northeast 181 208 3,700 -818 Descending FlightAware ADS-B
09:22AM 40.4735 -74.3681 55° Northeast 172 198 3,700 -1,125 Level FlightAware ADS-B
09:22AM 40.4799 -74.3555 56° Northeast 172 198 3,400 -1,000 Descending FlightAware ADS-B
09:23AM 40.4812 -74.3528 58° Northeast 173 199 3,400 -1,125 Level FlightAware ADS-B
09:23AM 40.4871 -74.3409 57° Northeast 172 198 3,100 -1,059 Descending FlightAware ADS-B
09:23AM 40.4887 -74.3375 58° Northeast 171 197 3,100 -667 Level FlightAware ADS-B
09:23AM 40.4947 -74.3253 57° Northeast 169 194 2,900 -882 Descending FlightAware ADS-B
09:23AM 40.5032 -74.3081 57° Northeast 168 193 2,600 -750 Descending FlightAware ADS-B
09:23AM 40.5050 -74.3044 57° Northeast 170 196 2,600  Level FlightAware ADS-B
09:24AM 40.5074 -74.2997 56° Northeast 161 185 2,600  Level FlightAware ADS-B
09:24AM 40.5133 -74.2878 57° Northeast 165 190 2,600  Level FlightAware ADS-B
09:24AM 40.5225 -74.2740 49° Northeast 163 188 2,600 -250 Level FlightAware ADS-B
09:24AM 40.5256 -74.2712 34° Northeast 164 189 2,500 -400 Descending FlightAware ADS-B
09:24AM 40.5325 -74.2664 28° Northeast 165 190 2,500  Level FlightAware ADS-B
09:25AM 40.5427 -74.2597 27° Northeast 164 189 2,500 -279 Level FlightAware ADS-B
09:25AM 40.5623 -74.2474 25° Northeast 159 183 2,300 -682 Descending FlightAware ADS-B
09:25AM 40.5725 -74.2410 25° Northeast 163 188 2,000 -968 Descending FlightAware ADS-B
09:26AM 40.5824 -74.2346 26° Northeast 153 176 1,800 -882 Descending FlightAware ADS-B
09:26AM 40.5942 -74.2272 25° Northeast 138 159 1,500 -750 Descending FlightAware ADS-B
09:26AM 40.6054 -74.2200 26° Northeast 125 144 1,300 -667 Descending FlightAware ADS-B
09:27AM 40.6133 -74.2150 26° Northeast 121 139 1,100 -774 Descending FlightAware ADS-B
09:27AM 40.6215 -74.2099 25° Northeast 123 142 900 -563 Descending FlightAware ADS-B
09:27AM 40.6294 -74.2047 27° Northeast 122 140 800 -545 Descending FlightAware ADS-B
09:27AM 40.6380 -74.1993 25° Northeast 119 137 600 -750 Descending FlightAware ADS-B
09:28AM 40.6457 -74.1945 25° Northeast 122 140 400 -720 Descending FlightAware ADS-B
09:28AM 40.6506 -74.1914 26° Northeast 125 144 300 -720 Descending FlightAware ADS-B
09:28AM 40.6584 -74.1864 26° Northeast 123 142 100 -800 Descending FlightAware ADS-B